sensor_id;sensor_type;location;lat;lon;timestamp;pressure;altitude;pressure_sealevel;temperature
11424;BMP180;5768;51.476;7.210;2023-04-15T00:02:18;99461.00;;;11.70
11424;BMP180;5768;51.476;7.210;2023-04-15T00:07:22;99450.00;;;11.60
11424;BMP180;5768;51.476;7.210;2023-04-15T00:12:24;99447.00;;;11.60
11424;BMP180;5768;51.476;7.210;2023-04-15T00:17:26;99450.00;;;11.50
11424;BMP180;5768;51.476;7.210;2023-04-15T00:22:30;99453.00;;;11.50
11424;BMP180;5768;51.476;7.210;2023-04-15T00:27:32;99460.00;;;11.50
11424;BMP180;5768;51.476;7.210;2023-04-15T00:32:34;99460.00;;;11.40
11424;BMP180;5768;51.476;7.210;2023-04-15T00:37:38;99461.00;;;11.30
11424;BMP180;5768;51.476;7.210;2023-04-15T00:42:40;99451.00;;;11.30
11424;BMP180;5768;51.476;7.210;2023-04-15T00:47:43;99448.00;;;11.20
11424;BMP180;5768;51.476;7.210;2023-04-15T00:52:47;99454.00;;;11.20
11424;BMP180;5768;51.476;7.210;2023-04-15T00:57:51;99458.00;;;11.10
11424;BMP180;5768;51.476;7.210;2023-04-15T01:02:53;99461.00;;;11.00
11424;BMP180;5768;51.476;7.210;2023-04-15T01:07:57;99456.00;;;11.00
11424;BMP180;5768;51.476;7.210;2023-04-15T01:12:59;99452.00;;;10.90
11424;BMP180;5768;51.476;7.210;2023-04-15T01:18:02;99461.00;;;10.90
11424;BMP180;5768;51.476;7.210;2023-04-15T01:23:06;99457.00;;;10.90
11424;BMP180;5768;51.476;7.210;2023-04-15T01:28:10;99453.00;;;10.90
11424;BMP180;5768;51.476;7.210;2023-04-15T01:33:12;99458.00;;;10.80
11424;BMP180;5768;51.476;7.210;2023-04-15T01:38:14;99455.00;;;10.80
11424;BMP180;5768;51.476;7.210;2023-04-15T01:43:18;99460.00;;;10.70
11424;BMP180;5768;51.476;7.210;2023-04-15T01:48:20;99453.00;;;10.70
11424;BMP180;5768;51.476;7.210;2023-04-15T01:53:23;99453.00;;;10.60
11424;BMP180;5768;51.476;7.210;2023-04-15T01:58:27;99458.00;;;10.50
11424;BMP180;5768;51.476;7.210;2023-04-15T02:03:29;99442.00;;;10.50
11424;BMP180;5768;51.476;7.210;2023-04-15T02:08:31;99455.00;;;10.40
11424;BMP180;5768;51.476;7.210;2023-04-15T02:13:36;99457.00;;;10.40
11424;BMP180;5768;51.476;7.210;2023-04-15T02:18:38;99455.00;;;10.30
11424;BMP180;5768;51.476;7.210;2023-04-15T02:23:41;99470.00;;;10.20
11424;BMP180;5768;51.476;7.210;2023-04-15T02:28:45;99469.00;;;10.10
11424;BMP180;5768;51.476;7.210;2023-04-15T02:33:48;99472.00;;;10.20
11424;BMP180;5768;51.476;7.210;2023-04-15T02:38:50;99466.00;;;10.20
11424;BMP180;5768;51.476;7.210;2023-04-15T02:43:54;99475.00;;;10.20
11424;BMP180;5768;51.476;7.210;2023-04-15T02:48:57;99490.00;;;10.20
11424;BMP180;5768;51.476;7.210;2023-04-15T02:53:59;99476.00;;;10.10
11424;BMP180;5768;51.476;7.210;2023-04-15T02:59:03;99496.00;;;10.10
11424;BMP180;5768;51.476;7.210;2023-04-15T03:04:08;99489.00;;;10.10
11424;BMP180;5768;51.476;7.210;2023-04-15T03:09:11;99494.00;;;10.10
11424;BMP180;5768;51.476;7.210;2023-04-15T03:14:14;99497.00;;;10.10
11424;BMP180;5768;51.476;7.210;2023-04-15T03:19:17;99497.00;;;10.00
11424;BMP180;5768;51.476;7.210;2023-04-15T03:24:20;99499.00;;;10.00
11424;BMP180;5768;51.476;7.210;2023-04-15T03:29:23;99510.00;;;10.00
11424;BMP180;5768;51.476;7.210;2023-04-15T03:34:26;99511.00;;;10.00
11424;BMP180;5768;51.476;7.210;2023-04-15T03:39:28;99519.00;;;10.00
11424;BMP180;5768;51.476;7.210;2023-04-15T03:44:32;99517.00;;;9.90
11424;BMP180;5768;51.476;7.210;2023-04-15T03:49:35;99521.00;;;9.90
11424;BMP180;5768;51.476;7.210;2023-04-15T03:54:40;99519.00;;;9.90
11424;BMP180;5768;51.476;7.210;2023-04-15T03:59:44;99524.00;;;9.80
11424;BMP180;5768;51.476;7.210;2023-04-15T04:04:46;99526.00;;;9.80
11424;BMP180;5768;51.476;7.210;2023-04-15T04:09:48;99530.00;;;9.70
11424;BMP180;5768;51.476;7.210;2023-04-15T04:14:53;99529.00;;;9.60
11424;BMP180;5768;51.476;7.210;2023-04-15T04:19:57;99538.00;;;9.60
11424;BMP180;5768;51.476;7.210;2023-04-15T04:24:59;99541.00;;;9.60
11424;BMP180;5768;51.476;7.210;2023-04-15T04:30:05;99533.00;;;9.60
11424;BMP180;5768;51.476;7.210;2023-04-15T04:35:08;99540.00;;;9.60
11424;BMP180;5768;51.476;7.210;2023-04-15T04:40:12;99549.00;;;9.50
11424;BMP180;5768;51.476;7.210;2023-04-15T04:45:16;99546.00;;;9.50
11424;BMP180;5768;51.476;7.210;2023-04-15T04:50:18;99562.00;;;9.60
11424;BMP180;5768;51.476;7.210;2023-04-15T04:55:20;99569.00;;;9.50
11424;BMP180;5768;51.476;7.210;2023-04-15T05:00:24;99572.00;;;9.50
11424;BMP180;5768;51.476;7.210;2023-04-15T05:05:29;99579.00;;;9.50
11424;BMP180;5768;51.476;7.210;2023-04-15T05:10:32;99579.00;;;9.60
11424;BMP180;5768;51.476;7.210;2023-04-15T05:15:35;99580.00;;;9.60
11424;BMP180;5768;51.476;7.210;2023-04-15T05:20:39;99589.00;;;9.70
11424;BMP180;5768;51.476;7.210;2023-04-15T05:25:41;99599.00;;;9.70
11424;BMP180;5768;51.476;7.210;2023-04-15T05:30:45;99606.00;;;9.80
11424;BMP180;5768;51.476;7.210;2023-04-15T05:35:47;99603.00;;;9.90
11424;BMP180;5768;51.476;7.210;2023-04-15T05:40:49;99617.00;;;10.00
11424;BMP180;5768;51.476;7.210;2023-04-15T05:45:53;99627.00;;;10.20
11424;BMP180;5768;51.476;7.210;2023-04-15T05:50:55;99642.00;;;10.30
11424;BMP180;5768;51.476;7.210;2023-04-15T05:55:58;99649.00;;;10.50
11424;BMP180;5768;51.476;7.210;2023-04-15T06:01:02;99645.00;;;10.60
11424;BMP180;5768;51.476;7.210;2023-04-15T06:06:04;99645.00;;;10.70
11424;BMP180;5768;51.476;7.210;2023-04-15T06:11:07;99651.00;;;10.90
11424;BMP180;5768;51.476;7.210;2023-04-15T06:16:11;99664.00;;;11.10
11424;BMP180;5768;51.476;7.210;2023-04-15T06:21:15;99663.00;;;11.20
11424;BMP180;5768;51.476;7.210;2023-04-15T06:26:18;99665.00;;;11.40
11424;BMP180;5768;51.476;7.210;2023-04-15T06:31:21;99679.00;;;11.60
11424;BMP180;5768;51.476;7.210;2023-04-15T06:36:23;99673.00;;;11.80
11424;BMP180;5768;51.476;7.210;2023-04-15T06:41:26;99679.00;;;12.00
11424;BMP180;5768;51.476;7.210;2023-04-15T06:46:30;99689.00;;;12.20
11424;BMP180;5768;51.476;7.210;2023-04-15T06:51:34;99695.00;;;12.30
11424;BMP180;5768;51.476;7.210;2023-04-15T06:56:39;99697.00;;;12.40
11424;BMP180;5768;51.476;7.210;2023-04-15T07:01:44;99705.00;;;12.40
11424;BMP180;5768;51.476;7.210;2023-04-15T07:06:46;99710.00;;;12.50
11424;BMP180;5768;51.476;7.210;2023-04-15T07:11:49;99711.00;;;12.60
11424;BMP180;5768;51.476;7.210;2023-04-15T07:16:52;99712.00;;;12.90
11424;BMP180;5768;51.476;7.210;2023-04-15T07:21:54;99718.00;;;13.10
11424;BMP180;5768;51.476;7.210;2023-04-15T07:26:57;99726.00;;;13.40
11424;BMP180;5768;51.476;7.210;2023-04-15T07:32:00;99726.00;;;13.60
11424;BMP180;5768;51.476;7.210;2023-04-15T07:37:02;99728.00;;;13.90
11424;BMP180;5768;51.476;7.210;2023-04-15T07:42:05;99729.00;;;14.10
11424;BMP180;5768;51.476;7.210;2023-04-15T07:47:09;99740.00;;;14.30
11424;BMP180;5768;51.476;7.210;2023-04-15T07:52:12;99746.00;;;14.40
11424;BMP180;5768;51.476;7.210;2023-04-15T07:57:14;99741.00;;;14.40
11424;BMP180;5768;51.476;7.210;2023-04-15T08:02:18;99749.00;;;14.50
11424;BMP180;5768;51.476;7.210;2023-04-15T08:07:20;99747.00;;;14.60
11424;BMP180;5768;51.476;7.210;2023-04-15T08:12:23;99745.00;;;14.80
11424;BMP180;5768;51.476;7.210;2023-04-15T08:17:27;99756.00;;;14.90
11424;BMP180;5768;51.476;7.210;2023-04-15T08:22:29;99762.00;;;14.80
11424;BMP180;5768;51.476;7.210;2023-04-15T08:27:31;99763.00;;;14.80
11424;BMP180;5768;51.476;7.210;2023-04-15T08:32:35;99770.00;;;15.10
11424;BMP180;5768;51.476;7.210;2023-04-15T08:37:37;99766.00;;;15.40
11424;BMP180;5768;51.476;7.210;2023-04-15T08:42:43;99779.00;;;15.40
11424;BMP180;5768;51.476;7.210;2023-04-15T08:47:54;99769.00;;;15.30
11424;BMP180;5768;51.476;7.210;2023-04-15T08:53:00;99777.00;;;15.30
11424;BMP180;5768;51.476;7.210;2023-04-15T08:58:04;99784.00;;;15.50
11424;BMP180;5768;51.476;7.210;2023-04-15T09:03:09;99788.00;;;16.00
11424;BMP180;5768;51.476;7.210;2023-04-15T09:08:11;99795.00;;;16.20
11424;BMP180;5768;51.476;7.210;2023-04-15T09:13:13;99799.00;;;16.10
11424;BMP180;5768;51.476;7.210;2023-04-15T09:18:29;99811.00;;;15.90
11424;BMP180;5768;51.476;7.210;2023-04-15T09:23:32;99824.00;;;15.90
11424;BMP180;5768;51.476;7.210;2023-04-15T09:28:41;99822.00;;;16.20
11424;BMP180;5768;51.476;7.210;2023-04-15T09:33:55;99829.00;;;16.30
11424;BMP180;5768;51.476;7.210;2023-04-15T09:38:59;99828.00;;;16.20
11424;BMP180;5768;51.476;7.210;2023-04-15T09:44:01;99830.00;;;16.10
11424;BMP180;5768;51.476;7.210;2023-04-15T09:49:11;99838.00;;;16.30
11424;BMP180;5768;51.476;7.210;2023-04-15T09:54:19;99848.00;;;16.40
11424;BMP180;5768;51.476;7.210;2023-04-15T09:59:21;99846.00;;;16.60
11424;BMP180;5768;51.476;7.210;2023-04-15T10:04:27;99852.00;;;16.80
11424;BMP180;5768;51.476;7.210;2023-04-15T10:09:30;99862.00;;;16.80
11424;BMP180;5768;51.476;7.210;2023-04-15T10:14:37;99854.00;;;16.60
11424;BMP180;5768;51.476;7.210;2023-04-15T10:19:43;99867.00;;;16.70
11424;BMP180;5768;51.476;7.210;2023-04-15T10:24:47;99865.00;;;16.80
11424;BMP180;5768;51.476;7.210;2023-04-15T10:29:52;99866.00;;;16.80
11424;BMP180;5768;51.476;7.210;2023-04-15T10:34:57;99879.00;;;17.10
11424;BMP180;5768;51.476;7.210;2023-04-15T10:39:59;99884.00;;;17.60
11424;BMP180;5768;51.476;7.210;2023-04-15T10:45:15;99887.00;;;17.20
11424;BMP180;5768;51.476;7.210;2023-04-15T10:50:19;99879.00;;;16.70
11424;BMP180;5768;51.476;7.210;2023-04-15T10:55:24;99891.00;;;16.30
11424;BMP180;5768;51.476;7.210;2023-04-15T11:00:29;99893.00;;;16.00
11424;BMP180;5768;51.476;7.210;2023-04-15T11:05:52;99900.00;;;15.60
11424;BMP180;5768;51.476;7.210;2023-04-15T11:10:55;99902.00;;;15.20
11424;BMP180;5768;51.476;7.210;2023-04-15T11:16:02;99913.00;;;15.10
11424;BMP180;5768;51.476;7.210;2023-04-15T11:21:07;99912.00;;;15.10
11424;BMP180;5768;51.476;7.210;2023-04-15T11:26:10;99907.00;;;15.00
11424;BMP180;5768;51.476;7.210;2023-04-15T11:31:15;99916.00;;;15.10
11424;BMP180;5768;51.476;7.210;2023-04-15T11:36:19;99926.00;;;15.00
11424;BMP180;5768;51.476;7.210;2023-04-15T11:41:21;99918.00;;;15.00
11424;BMP180;5768;51.476;7.210;2023-04-15T11:46:29;99925.00;;;14.80
11424;BMP180;5768;51.476;7.210;2023-04-15T11:51:34;99941.00;;;14.80
11424;BMP180;5768;51.476;7.210;2023-04-15T11:56:37;99930.00;;;14.70
11424;BMP180;5768;51.476;7.210;2023-04-15T12:01:40;99942.00;;;14.70
11424;BMP180;5768;51.476;7.210;2023-04-15T12:06:45;99937.00;;;14.70
11424;BMP180;5768;51.476;7.210;2023-04-15T12:11:48;99956.00;;;14.50
11424;BMP180;5768;51.476;7.210;2023-04-15T12:16:53;99963.00;;;14.40
11424;BMP180;5768;51.476;7.210;2023-04-15T12:22:00;99967.00;;;14.50
11424;BMP180;5768;51.476;7.210;2023-04-15T12:27:04;99974.00;;;14.40
11424;BMP180;5768;51.476;7.210;2023-04-15T12:32:09;99976.00;;;14.40
11424;BMP180;5768;51.476;7.210;2023-04-15T12:37:13;99988.00;;;14.30
11424;BMP180;5768;51.476;7.210;2023-04-15T12:42:17;99992.00;;;14.30
11424;BMP180;5768;51.476;7.210;2023-04-15T12:47:19;100001.00;;;14.30
11424;BMP180;5768;51.476;7.210;2023-04-15T12:52:23;100008.00;;;14.40
11424;BMP180;5768;51.476;7.210;2023-04-15T12:57:25;100010.00;;;14.40
11424;BMP180;5768;51.476;7.210;2023-04-15T13:02:27;100020.00;;;14.60
11424;BMP180;5768;51.476;7.210;2023-04-15T13:07:33;100021.00;;;14.80
11424;BMP180;5768;51.476;7.210;2023-04-15T13:12:35;100020.00;;;14.80
11424;BMP180;5768;51.476;7.210;2023-04-15T13:17:38;100012.00;;;15.00
11424;BMP180;5768;51.476;7.210;2023-04-15T13:22:42;100030.00;;;15.00
11424;BMP180;5768;51.476;7.210;2023-04-15T13:27:45;100048.00;;;14.90
11424;BMP180;5768;51.476;7.210;2023-04-15T13:32:49;100044.00;;;14.70
11424;BMP180;5768;51.476;7.210;2023-04-15T13:37:53;100048.00;;;14.60
11424;BMP180;5768;51.476;7.210;2023-04-15T13:42:56;100054.00;;;14.50
11424;BMP180;5768;51.476;7.210;2023-04-15T13:47:59;100061.00;;;14.40
11424;BMP180;5768;51.476;7.210;2023-04-15T13:53:02;100060.00;;;14.50
11424;BMP180;5768;51.476;7.210;2023-04-15T13:58:04;100059.00;;;14.50
11424;BMP180;5768;51.476;7.210;2023-04-15T14:03:07;100068.00;;;14.50
11424;BMP180;5768;51.476;7.210;2023-04-15T14:08:11;100081.00;;;14.30
11424;BMP180;5768;51.476;7.210;2023-04-15T14:13:13;100091.00;;;14.30
11424;BMP180;5768;51.476;7.210;2023-04-15T14:18:16;100095.00;;;14.20
11424;BMP180;5768;51.476;7.210;2023-04-15T14:23:19;100094.00;;;14.00
11424;BMP180;5768;51.476;7.210;2023-04-15T14:28:22;100098.00;;;13.90
11424;BMP180;5768;51.476;7.210;2023-04-15T14:33:25;100109.00;;;13.90
11424;BMP180;5768;51.476;7.210;2023-04-15T14:38:29;100116.00;;;13.80
11424;BMP180;5768;51.476;7.210;2023-04-15T14:43:33;100122.00;;;13.70
11424;BMP180;5768;51.476;7.210;2023-04-15T14:48:35;100125.00;;;13.60
11424;BMP180;5768;51.476;7.210;2023-04-15T14:53:39;100123.00;;;13.50
11424;BMP180;5768;51.476;7.210;2023-04-15T14:58:41;100138.00;;;13.50
11424;BMP180;5768;51.476;7.210;2023-04-15T15:03:44;100146.00;;;13.40
11424;BMP180;5768;51.476;7.210;2023-04-15T15:08:51;100149.00;;;13.40
11424;BMP180;5768;51.476;7.210;2023-04-15T15:13:53;100152.00;;;13.30
11424;BMP180;5768;51.476;7.210;2023-04-15T15:18:56;100151.00;;;13.30
11424;BMP180;5768;51.476;7.210;2023-04-15T15:24:00;100160.00;;;13.20
11424;BMP180;5768;51.476;7.210;2023-04-15T15:29:02;100159.00;;;13.20
11424;BMP180;5768;51.476;7.210;2023-04-15T15:34:05;100167.00;;;13.20
11424;BMP180;5768;51.476;7.210;2023-04-15T15:39:09;100165.00;;;13.10
11424;BMP180;5768;51.476;7.210;2023-04-15T15:44:11;100167.00;;;13.10
11424;BMP180;5768;51.476;7.210;2023-04-15T15:49:14;100164.00;;;13.10
11424;BMP180;5768;51.476;7.210;2023-04-15T15:54:17;100168.00;;;12.90
11424;BMP180;5768;51.476;7.210;2023-04-15T15:59:20;100182.00;;;12.80
11424;BMP180;5768;51.476;7.210;2023-04-15T16:04:22;100187.00;;;12.80
11424;BMP180;5768;51.476;7.210;2023-04-15T16:09:26;100194.00;;;12.70
11424;BMP180;5768;51.476;7.210;2023-04-15T16:14:37;100218.00;;;12.60
11424;BMP180;5768;51.476;7.210;2023-04-15T16:19:40;100209.00;;;12.60
11424;BMP180;5768;51.476;7.210;2023-04-15T16:24:43;100211.00;;;12.60
11424;BMP180;5768;51.476;7.210;2023-04-15T16:29:46;100231.00;;;12.70
11424;BMP180;5768;51.476;7.210;2023-04-15T16:34:48;100230.00;;;12.70
11424;BMP180;5768;51.476;7.210;2023-04-15T16:39:52;100250.00;;;12.70
11424;BMP180;5768;51.476;7.210;2023-04-15T16:44:54;100252.00;;;12.70
11424;BMP180;5768;51.476;7.210;2023-04-15T16:49:57;100252.00;;;12.80
11424;BMP180;5768;51.476;7.210;2023-04-15T16:55:00;100256.00;;;12.70
11424;BMP180;5768;51.476;7.210;2023-04-15T17:00:04;100266.00;;;12.70
11424;BMP180;5768;51.476;7.210;2023-04-15T17:05:07;100268.00;;;12.60
11424;BMP180;5768;51.476;7.210;2023-04-15T17:10:11;100268.00;;;12.50
11424;BMP180;5768;51.476;7.210;2023-04-15T17:15:14;100279.00;;;12.50
11424;BMP180;5768;51.476;7.210;2023-04-15T17:20:17;100284.00;;;12.50
11424;BMP180;5768;51.476;7.210;2023-04-15T17:25:22;100279.00;;;12.40
11424;BMP180;5768;51.476;7.210;2023-04-15T17:30:24;100284.00;;;12.40
11424;BMP180;5768;51.476;7.210;2023-04-15T17:35:27;100286.00;;;12.40
11424;BMP180;5768;51.476;7.210;2023-04-15T17:40:30;100299.00;;;12.40
11424;BMP180;5768;51.476;7.210;2023-04-15T17:45:33;100295.00;;;12.30
11424;BMP180;5768;51.476;7.210;2023-04-15T17:50:35;100306.00;;;12.20
11424;BMP180;5768;51.476;7.210;2023-04-15T17:55:39;100318.00;;;12.10
11424;BMP180;5768;51.476;7.210;2023-04-15T18:00:41;100314.00;;;12.10
11424;BMP180;5768;51.476;7.210;2023-04-15T18:05:44;100330.00;;;12.10
11424;BMP180;5768;51.476;7.210;2023-04-15T18:10:47;100333.00;;;12.10
11424;BMP180;5768;51.476;7.210;2023-04-15T18:15:50;100345.00;;;12.10
11424;BMP180;5768;51.476;7.210;2023-04-15T18:20:52;100343.00;;;12.10
11424;BMP180;5768;51.476;7.210;2023-04-15T18:25:56;100347.00;;;12.10
11424;BMP180;5768;51.476;7.210;2023-04-15T18:31:08;100355.00;;;12.10
11424;BMP180;5768;51.476;7.210;2023-04-15T18:36:10;100366.00;;;12.10
11424;BMP180;5768;51.476;7.210;2023-04-15T18:41:14;100368.00;;;12.00
11424;BMP180;5768;51.476;7.210;2023-04-15T18:46:16;100380.00;;;12.00
11424;BMP180;5768;51.476;7.210;2023-04-15T18:51:18;100382.00;;;12.00
11424;BMP180;5768;51.476;7.210;2023-04-15T18:56:22;100393.00;;;11.90
11424;BMP180;5768;51.476;7.210;2023-04-15T19:01:25;100398.00;;;11.90
11424;BMP180;5768;51.476;7.210;2023-04-15T19:06:27;100400.00;;;11.90
11424;BMP180;5768;51.476;7.210;2023-04-15T19:11:30;100413.00;;;11.80
11424;BMP180;5768;51.476;7.210;2023-04-15T19:16:33;100421.00;;;11.80
11424;BMP180;5768;51.476;7.210;2023-04-15T19:21:36;100415.00;;;11.80
11424;BMP180;5768;51.476;7.210;2023-04-15T19:26:39;100419.00;;;11.70
11424;BMP180;5768;51.476;7.210;2023-04-15T19:31:41;100424.00;;;11.80
11424;BMP180;5768;51.476;7.210;2023-04-15T19:36:45;100436.00;;;11.70
11424;BMP180;5768;51.476;7.210;2023-04-15T19:41:48;100428.00;;;11.70
11424;BMP180;5768;51.476;7.210;2023-04-15T19:46:51;100440.00;;;11.70
11424;BMP180;5768;51.476;7.210;2023-04-15T19:51:54;100441.00;;;11.70
11424;BMP180;5768;51.476;7.210;2023-04-15T19:56:57;100450.00;;;11.70
11424;BMP180;5768;51.476;7.210;2023-04-15T20:02:01;100443.00;;;11.80
11424;BMP180;5768;51.476;7.210;2023-04-15T20:07:03;100443.00;;;11.80
11424;BMP180;5768;51.476;7.210;2023-04-15T20:12:07;100446.00;;;11.70
11424;BMP180;5768;51.476;7.210;2023-04-15T20:17:10;100442.00;;;11.60
11424;BMP180;5768;51.476;7.210;2023-04-15T20:22:12;100450.00;;;11.50
11424;BMP180;5768;51.476;7.210;2023-04-15T20:27:15;100457.00;;;11.60
11424;BMP180;5768;51.476;7.210;2023-04-15T20:32:18;100459.00;;;11.70
11424;BMP180;5768;51.476;7.210;2023-04-15T20:37:20;100465.00;;;11.80
11424;BMP180;5768;51.476;7.210;2023-04-15T20:42:24;100477.00;;;11.90
11424;BMP180;5768;51.476;7.210;2023-04-15T20:47:26;100478.00;;;11.90
11424;BMP180;5768;51.476;7.210;2023-04-15T20:52:29;100477.00;;;11.90
11424;BMP180;5768;51.476;7.210;2023-04-15T20:57:32;100475.00;;;11.90
11424;BMP180;5768;51.476;7.210;2023-04-15T21:02:37;100472.00;;;11.80
11424;BMP180;5768;51.476;7.210;2023-04-15T21:07:40;100474.00;;;11.80
11424;BMP180;5768;51.476;7.210;2023-04-15T21:12:43;100488.00;;;11.80
11424;BMP180;5768;51.476;7.210;2023-04-15T21:17:46;100476.00;;;11.80
11424;BMP180;5768;51.476;7.210;2023-04-15T21:22:48;100468.00;;;11.80
11424;BMP180;5768;51.476;7.210;2023-04-15T21:27:54;100498.00;;;11.70
11424;BMP180;5768;51.476;7.210;2023-04-15T21:32:56;100495.00;;;11.70
11424;BMP180;5768;51.476;7.210;2023-04-15T21:37:58;100502.00;;;11.80
11424;BMP180;5768;51.476;7.210;2023-04-15T21:43:02;100510.00;;;11.80
11424;BMP180;5768;51.476;7.210;2023-04-15T21:48:04;100517.00;;;11.70
11424;BMP180;5768;51.476;7.210;2023-04-15T21:53:08;100527.00;;;11.70
11424;BMP180;5768;51.476;7.210;2023-04-15T21:58:12;100526.00;;;11.70
11424;BMP180;5768;51.476;7.210;2023-04-15T22:03:14;100531.00;;;11.70
11424;BMP180;5768;51.476;7.210;2023-04-15T22:08:16;100534.00;;;11.70
11424;BMP180;5768;51.476;7.210;2023-04-15T22:13:20;100544.00;;;11.70
11424;BMP180;5768;51.476;7.210;2023-04-15T22:18:23;100535.00;;;11.70
11424;BMP180;5768;51.476;7.210;2023-04-15T22:23:26;100535.00;;;11.70
11424;BMP180;5768;51.476;7.210;2023-04-15T22:28:30;100536.00;;;11.80
11424;BMP180;5768;51.476;7.210;2023-04-15T22:33:32;100544.00;;;11.80
11424;BMP180;5768;51.476;7.210;2023-04-15T22:38:34;100546.00;;;11.80
11424;BMP180;5768;51.476;7.210;2023-04-15T22:43:38;100562.00;;;11.70
11424;BMP180;5768;51.476;7.210;2023-04-15T22:48:43;100557.00;;;11.70
11424;BMP180;5768;51.476;7.210;2023-04-15T22:53:45;100567.00;;;11.80
11424;BMP180;5768;51.476;7.210;2023-04-15T22:58:50;100574.00;;;11.80
11424;BMP180;5768;51.476;7.210;2023-04-15T23:03:52;100570.00;;;11.80
11424;BMP180;5768;51.476;7.210;2023-04-15T23:08:54;100575.00;;;11.80
11424;BMP180;5768;51.476;7.210;2023-04-15T23:13:58;100586.00;;;11.80
11424;BMP180;5768;51.476;7.210;2023-04-15T23:19:00;100580.00;;;11.80
11424;BMP180;5768;51.476;7.210;2023-04-15T23:24:02;100581.00;;;11.70
11424;BMP180;5768;51.476;7.210;2023-04-15T23:29:07;100593.00;;;11.60
11424;BMP180;5768;51.476;7.210;2023-04-15T23:34:09;100590.00;;;11.70
11424;BMP180;5768;51.476;7.210;2023-04-15T23:39:11;100594.00;;;11.70
11424;BMP180;5768;51.476;7.210;2023-04-15T23:44:15;100594.00;;;11.50
11424;BMP180;5768;51.476;7.210;2023-04-15T23:49:21;100591.00;;;11.40
11424;BMP180;5768;51.476;7.210;2023-04-15T23:54:23;100601.00;;;11.50
11424;BMP180;5768;51.476;7.210;2023-04-15T23:59:27;100596.00;;;11.50
